PPM weather

Pompano Beach Airpark
Pompano Beach, Florida, United States

Public forecast

Using degrees Fahrenheit for public forecast. Weather courtesy of forecast.io.

METAR (pilot weather report)

Retrieved 2019/06/20 11:53 UTC (30 minutes ago):

KPMP 201153Z 19004KT 10SM CLR 28/26 A3004 RMK AO2 SLP174 70002 T02780256 10278 20261 53015

TAF (pilot weather forecast)

Closest forecast is Fort Lauderdale Executive Airport, 4.4 nm (8.1 km) SW. Retrieved 2019/06/20 12:22 UTC (37 seconds ago):

TAF KFXE 201120Z 2012/2112 VRB03KT P6SM BKN250 FM201400 19010KT P6SM SCT025 SCT070 SCT250 FM210100 VRB05KT P6SM SCT025 BKN250